sensor_id;sensor_type;location;lat;lon;timestamp;P1;durP1;ratioP1;P2;durP2;ratioP2
71965;SDS011;59836;52.132;5.442;2023-10-13T00:00:29;12.68;;;7.20;;
71965;SDS011;59836;52.132;5.442;2023-10-13T00:03:15;11.55;;;6.85;;
71965;SDS011;59836;52.132;5.442;2023-10-13T00:08:32;11.90;;;6.50;;
71965;SDS011;59836;52.132;5.442;2023-10-13T00:10:59;10.85;;;6.13;;
71965;SDS011;59836;52.132;5.442;2023-10-13T00:13:44;13.40;;;6.82;;
71965;SDS011;59836;52.132;5.442;2023-10-13T00:16:17;11.25;;;6.78;;
71965;SDS011;59836;52.132;5.442;2023-10-13T00:19:06;11.07;;;6.67;;
71965;SDS011;59836;52.132;5.442;2023-10-13T00:21:34;13.25;;;7.13;;
71965;SDS011;59836;52.132;5.442;2023-10-13T00:24:02;14.15;;;7.18;;
71965;SDS011;59836;52.132;5.442;2023-10-13T00:26:32;12.10;;;6.80;;
71965;SDS011;59836;52.132;5.442;2023-10-13T00:29:10;12.00;;;7.35;;
71965;SDS011;59836;52.132;5.442;2023-10-13T00:34:10;12.90;;;6.57;;
71965;SDS011;59836;52.132;5.442;2023-10-13T00:36:58;13.40;;;6.25;;
71965;SDS011;59836;52.132;5.442;2023-10-13T00:39:53;12.55;;;6.35;;
71965;SDS011;59836;52.132;5.442;2023-10-13T00:42:23;12.82;;;6.63;;
71965;SDS011;59836;52.132;5.442;2023-10-13T00:50:22;10.95;;;6.43;;
71965;SDS011;59836;52.132;5.442;2023-10-13T00:52:50;14.80;;;6.15;;
71965;SDS011;59836;52.132;5.442;2023-10-13T00:55:17;9.85;;;5.88;;
71965;SDS011;59836;52.132;5.442;2023-10-13T00:57:52;13.27;;;5.50;;
71965;SDS011;59836;52.132;5.442;2023-10-13T01:00:20;11.95;;;6.05;;
71965;SDS011;59836;52.132;5.442;2023-10-13T01:02:57;9.07;;;5.63;;
71965;SDS011;59836;52.132;5.442;2023-10-13T01:05:33;11.63;;;7.10;;
71965;SDS011;59836;52.132;5.442;2023-10-13T01:08:13;9.35;;;6.22;;
71965;SDS011;59836;52.132;5.442;2023-10-13T01:13:16;10.75;;;6.03;;
71965;SDS011;59836;52.132;5.442;2023-10-13T01:15:43;14.07;;;6.50;;
71965;SDS011;59836;52.132;5.442;2023-10-13T01:18:13;12.90;;;7.15;;
71965;SDS011;59836;52.132;5.442;2023-10-13T01:20:43;10.43;;;6.38;;
71965;SDS011;59836;52.132;5.442;2023-10-13T01:26:04;13.23;;;7.55;;
71965;SDS011;59836;52.132;5.442;2023-10-13T01:28:44;14.65;;;8.50;;
71965;SDS011;59836;52.132;5.442;2023-10-13T01:31:12;12.73;;;7.72;;
71965;SDS011;59836;52.132;5.442;2023-10-13T01:33:54;12.65;;;7.70;;
71965;SDS011;59836;52.132;5.442;2023-10-13T01:36:28;12.33;;;7.07;;
71965;SDS011;59836;52.132;5.442;2023-10-13T01:39:01;13.55;;;7.63;;
71965;SDS011;59836;52.132;5.442;2023-10-13T01:41:28;11.60;;;7.82;;
71965;SDS011;59836;52.132;5.442;2023-10-13T01:43:57;12.95;;;7.43;;
71965;SDS011;59836;52.132;5.442;2023-10-13T01:46:23;13.82;;;7.95;;
71965;SDS011;59836;52.132;5.442;2023-10-13T01:48:50;14.37;;;7.57;;
71965;SDS011;59836;52.132;5.442;2023-10-13T01:53:55;13.63;;;8.20;;
71965;SDS011;59836;52.132;5.442;2023-10-13T01:56:24;12.25;;;6.85;;
71965;SDS011;59836;52.132;5.442;2023-10-13T01:58:51;13.00;;;7.50;;
71965;SDS011;59836;52.132;5.442;2023-10-13T02:01:19;11.00;;;7.33;;
71965;SDS011;59836;52.132;5.442;2023-10-13T02:03:54;12.02;;;7.10;;
71965;SDS011;59836;52.132;5.442;2023-10-13T02:06:40;15.07;;;7.63;;
71965;SDS011;59836;52.132;5.442;2023-10-13T02:09:07;12.32;;;7.18;;
71965;SDS011;59836;52.132;5.442;2023-10-13T02:11:52;10.90;;;6.68;;
71965;SDS011;59836;52.132;5.442;2023-10-13T02:14:23;10.27;;;7.27;;
71965;SDS011;59836;52.132;5.442;2023-10-13T02:19:39;10.30;;;6.45;;
71965;SDS011;59836;52.132;5.442;2023-10-13T02:22:19;15.48;;;6.15;;
71965;SDS011;59836;52.132;5.442;2023-10-13T02:28:04;17.10;;;6.57;;
71965;SDS011;59836;52.132;5.442;2023-10-13T02:30:40;12.85;;;6.20;;
71965;SDS011;59836;52.132;5.442;2023-10-13T02:36:12;10.43;;;6.38;;
71965;SDS011;59836;52.132;5.442;2023-10-13T02:38:38;9.63;;;6.47;;
71965;SDS011;59836;52.132;5.442;2023-10-13T02:41:12;10.73;;;5.70;;
71965;SDS011;59836;52.132;5.442;2023-10-13T02:43:46;13.70;;;6.63;;
71965;SDS011;59836;52.132;5.442;2023-10-13T02:49:07;11.68;;;5.90;;
71965;SDS011;59836;52.132;5.442;2023-10-13T02:51:46;13.30;;;5.85;;
71965;SDS011;59836;52.132;5.442;2023-10-13T02:54:13;9.67;;;5.53;;
71965;SDS011;59836;52.132;5.442;2023-10-13T02:56:48;12.07;;;6.03;;
71965;SDS011;59836;52.132;5.442;2023-10-13T02:59:44;10.43;;;5.82;;
71965;SDS011;59836;52.132;5.442;2023-10-13T03:02:14;7.25;;;5.28;;
71965;SDS011;59836;52.132;5.442;2023-10-13T03:04:49;10.73;;;6.32;;
71965;SDS011;59836;52.132;5.442;2023-10-13T03:07:17;10.47;;;5.40;;
71965;SDS011;59836;52.132;5.442;2023-10-13T03:09:59;9.68;;;5.22;;
71965;SDS011;59836;52.132;5.442;2023-10-13T03:12:38;9.13;;;5.13;;
71965;SDS011;59836;52.132;5.442;2023-10-13T03:15:06;9.00;;;5.38;;
71965;SDS011;59836;52.132;5.442;2023-10-13T03:17:47;9.60;;;5.55;;
71965;SDS011;59836;52.132;5.442;2023-10-13T03:20:21;10.23;;;5.63;;
71965;SDS011;59836;52.132;5.442;2023-10-13T03:22:58;9.18;;;5.50;;
71965;SDS011;59836;52.132;5.442;2023-10-13T03:25:25;9.45;;;6.20;;
71965;SDS011;59836;52.132;5.442;2023-10-13T03:28:11;9.80;;;5.72;;
71965;SDS011;59836;52.132;5.442;2023-10-13T03:30:43;7.78;;;5.45;;
71965;SDS011;59836;52.132;5.442;2023-10-13T03:33:10;10.83;;;5.37;;
71965;SDS011;59836;52.132;5.442;2023-10-13T03:38:34;10.65;;;5.57;;
71965;SDS011;59836;52.132;5.442;2023-10-13T03:43:56;8.63;;;5.07;;
71965;SDS011;59836;52.132;5.442;2023-10-13T03:46:35;7.03;;;4.43;;
71965;SDS011;59836;52.132;5.442;2023-10-13T03:49:21;11.45;;;4.30;;
71965;SDS011;59836;52.132;5.442;2023-10-13T03:51:48;5.97;;;4.53;;
71965;SDS011;59836;52.132;5.442;2023-10-13T03:54:15;7.45;;;4.07;;
71965;SDS011;59836;52.132;5.442;2023-10-13T03:56:43;9.35;;;4.40;;
71965;SDS011;59836;52.132;5.442;2023-10-13T03:59:12;7.10;;;3.47;;
71965;SDS011;59836;52.132;5.442;2023-10-13T04:01:56;7.93;;;4.35;;
71965;SDS011;59836;52.132;5.442;2023-10-13T04:04:27;7.30;;;4.25;;
71965;SDS011;59836;52.132;5.442;2023-10-13T04:07:24;6.45;;;4.47;;
71965;SDS011;59836;52.132;5.442;2023-10-13T04:10:07;9.52;;;4.63;;
71965;SDS011;59836;52.132;5.442;2023-10-13T04:13:04;6.43;;;4.37;;
71965;SDS011;59836;52.132;5.442;2023-10-13T04:15:49;8.63;;;4.82;;
71965;SDS011;59836;52.132;5.442;2023-10-13T04:18:41;7.85;;;4.28;;
71965;SDS011;59836;52.132;5.442;2023-10-13T04:21:27;6.65;;;3.65;;
71965;SDS011;59836;52.132;5.442;2023-10-13T04:24:10;7.55;;;4.65;;
71965;SDS011;59836;52.132;5.442;2023-10-13T04:26:44;6.03;;;4.30;;
71965;SDS011;59836;52.132;5.442;2023-10-13T04:29:40;7.30;;;5.00;;
71965;SDS011;59836;52.132;5.442;2023-10-13T04:32:26;9.40;;;4.00;;
71965;SDS011;59836;52.132;5.442;2023-10-13T04:34:56;6.38;;;3.85;;
71965;SDS011;59836;52.132;5.442;2023-10-13T04:37:56;7.50;;;3.85;;
71965;SDS011;59836;52.132;5.442;2023-10-13T04:40:27;7.27;;;3.57;;
71965;SDS011;59836;52.132;5.442;2023-10-13T04:43:02;7.05;;;3.97;;
71965;SDS011;59836;52.132;5.442;2023-10-13T04:45:51;7.32;;;3.80;;
71965;SDS011;59836;52.132;5.442;2023-10-13T04:48:37;6.05;;;3.78;;
71965;SDS011;59836;52.132;5.442;2023-10-13T04:51:07;7.35;;;3.97;;
71965;SDS011;59836;52.132;5.442;2023-10-13T04:53:52;5.83;;;3.30;;
71965;SDS011;59836;52.132;5.442;2023-10-13T04:56:37;7.45;;;3.70;;
71965;SDS011;59836;52.132;5.442;2023-10-13T04:59:06;6.78;;;3.60;;
71965;SDS011;59836;52.132;5.442;2023-10-13T05:05:13;4.93;;;2.90;;
71965;SDS011;59836;52.132;5.442;2023-10-13T05:07:44;5.20;;;3.23;;
71965;SDS011;59836;52.132;5.442;2023-10-13T05:10:36;4.90;;;2.53;;
71965;SDS011;59836;52.132;5.442;2023-10-13T05:13:21;5.00;;;3.35;;
71965;SDS011;59836;52.132;5.442;2023-10-13T05:16:07;6.43;;;3.17;;
71965;SDS011;59836;52.132;5.442;2023-10-13T05:18:54;4.75;;;2.63;;
71965;SDS011;59836;52.132;5.442;2023-10-13T05:21:38;5.07;;;2.73;;
71965;SDS011;59836;52.132;5.442;2023-10-13T05:24:28;5.05;;;3.42;;
71965;SDS011;59836;52.132;5.442;2023-10-13T05:27:14;4.07;;;2.92;;
71965;SDS011;59836;52.132;5.442;2023-10-13T05:29:59;7.57;;;4.05;;
71965;SDS011;59836;52.132;5.442;2023-10-13T05:32:56;6.78;;;4.13;;
71965;SDS011;59836;52.132;5.442;2023-10-13T05:35:41;9.47;;;3.87;;
71965;SDS011;59836;52.132;5.442;2023-10-13T05:38:30;8.05;;;3.83;;
71965;SDS011;59836;52.132;5.442;2023-10-13T05:44:22;7.65;;;3.92;;
71965;SDS011;59836;52.132;5.442;2023-10-13T05:47:04;10.45;;;4.07;;
71965;SDS011;59836;52.132;5.442;2023-10-13T05:49:51;5.80;;;2.97;;
71965;SDS011;59836;52.132;5.442;2023-10-13T05:52:38;8.15;;;3.58;;
71965;SDS011;59836;52.132;5.442;2023-10-13T05:55:24;5.70;;;3.20;;
71965;SDS011;59836;52.132;5.442;2023-10-13T05:58:19;6.75;;;3.38;;
71965;SDS011;59836;52.132;5.442;2023-10-13T06:01:15;7.88;;;2.95;;
71965;SDS011;59836;52.132;5.442;2023-10-13T06:04:01;9.40;;;3.97;;
71965;SDS011;59836;52.132;5.442;2023-10-13T06:06:46;9.25;;;3.42;;
71965;SDS011;59836;52.132;5.442;2023-10-13T06:16:28;6.82;;;3.60;;
71965;SDS011;59836;52.132;5.442;2023-10-13T06:19:07;7.33;;;2.83;;
71965;SDS011;59836;52.132;5.442;2023-10-13T06:24:45;9.52;;;3.72;;
71965;SDS011;59836;52.132;5.442;2023-10-13T06:27:30;9.68;;;4.05;;
71965;SDS011;59836;52.132;5.442;2023-10-13T06:30:15;10.63;;;3.15;;
71965;SDS011;59836;52.132;5.442;2023-10-13T06:32:43;7.30;;;3.40;;
71965;SDS011;59836;52.132;5.442;2023-10-13T06:35:25;8.77;;;3.88;;
71965;SDS011;59836;52.132;5.442;2023-10-13T06:40:47;10.13;;;3.25;;
71965;SDS011;59836;52.132;5.442;2023-10-13T06:46:37;8.77;;;4.03;;
71965;SDS011;59836;52.132;5.442;2023-10-13T06:49:04;5.72;;;3.53;;
71965;SDS011;59836;52.132;5.442;2023-10-13T06:51:30;7.85;;;3.90;;
71965;SDS011;59836;52.132;5.442;2023-10-13T06:54:05;6.63;;;3.80;;
71965;SDS011;59836;52.132;5.442;2023-10-13T06:56:36;8.10;;;3.83;;
71965;SDS011;59836;52.132;5.442;2023-10-13T07:02:07;7.00;;;4.60;;
71965;SDS011;59836;52.132;5.442;2023-10-13T07:04:53;7.82;;;5.97;;
71965;SDS011;59836;52.132;5.442;2023-10-13T07:07:34;6.00;;;4.68;;
71965;SDS011;59836;52.132;5.442;2023-10-13T07:10:13;6.28;;;4.47;;
71965;SDS011;59836;52.132;5.442;2023-10-13T07:12:40;7.63;;;4.63;;
71965;SDS011;59836;52.132;5.442;2023-10-13T07:15:09;9.23;;;5.03;;
71965;SDS011;59836;52.132;5.442;2023-10-13T07:17:42;10.55;;;5.38;;
71965;SDS011;59836;52.132;5.442;2023-10-13T07:20:11;6.20;;;4.80;;
71965;SDS011;59836;52.132;5.442;2023-10-13T07:22:52;8.10;;;5.20;;
71965;SDS011;59836;52.132;5.442;2023-10-13T07:25:32;9.60;;;4.93;;
71965;SDS011;59836;52.132;5.442;2023-10-13T07:28:00;9.20;;;5.53;;
71965;SDS011;59836;52.132;5.442;2023-10-13T07:30:26;11.20;;;5.65;;
71965;SDS011;59836;52.132;5.442;2023-10-13T07:32:54;7.70;;;5.00;;
71965;SDS011;59836;52.132;5.442;2023-10-13T07:35:21;13.07;;;5.70;;
71965;SDS011;59836;52.132;5.442;2023-10-13T07:37:51;5.83;;;4.47;;
71965;SDS011;59836;52.132;5.442;2023-10-13T07:40:21;9.73;;;4.30;;
71965;SDS011;59836;52.132;5.442;2023-10-13T07:43:06;6.22;;;4.40;;
71965;SDS011;59836;52.132;5.442;2023-10-13T07:45:36;11.10;;;4.53;;
71965;SDS011;59836;52.132;5.442;2023-10-13T07:48:07;7.93;;;3.75;;
71965;SDS011;59836;52.132;5.442;2023-10-13T07:50:43;7.83;;;3.77;;
71965;SDS011;59836;52.132;5.442;2023-10-13T07:53:12;7.30;;;4.30;;
71965;SDS011;59836;52.132;5.442;2023-10-13T07:55:51;6.97;;;4.20;;
71965;SDS011;59836;52.132;5.442;2023-10-13T07:58:28;7.50;;;3.97;;
71965;SDS011;59836;52.132;5.442;2023-10-13T08:00:58;10.65;;;4.30;;
71965;SDS011;59836;52.132;5.442;2023-10-13T08:03:24;10.63;;;4.87;;
71965;SDS011;59836;52.132;5.442;2023-10-13T08:06:14;8.85;;;3.60;;
71965;SDS011;59836;52.132;5.442;2023-10-13T08:08:46;6.07;;;3.47;;
71965;SDS011;59836;52.132;5.442;2023-10-13T08:11:16;7.65;;;3.67;;
71965;SDS011;59836;52.132;5.442;2023-10-13T08:13:50;9.85;;;3.78;;
71965;SDS011;59836;52.132;5.442;2023-10-13T08:16:38;11.63;;;4.30;;
71965;SDS011;59836;52.132;5.442;2023-10-13T08:19:13;6.38;;;3.38;;
71965;SDS011;59836;52.132;5.442;2023-10-13T08:21:43;9.60;;;4.05;;
71965;SDS011;59836;52.132;5.442;2023-10-13T08:24:26;8.18;;;3.10;;
71965;SDS011;59836;52.132;5.442;2023-10-13T08:27:05;7.32;;;4.03;;
71965;SDS011;59836;52.132;5.442;2023-10-13T08:29:42;10.87;;;4.13;;
71965;SDS011;59836;52.132;5.442;2023-10-13T08:32:26;9.52;;;3.80;;
71965;SDS011;59836;52.132;5.442;2023-10-13T08:35:00;8.23;;;3.83;;
71965;SDS011;59836;52.132;5.442;2023-10-13T08:37:30;9.93;;;4.00;;
71965;SDS011;59836;52.132;5.442;2023-10-13T08:40:16;11.52;;;4.40;;
71965;SDS011;59836;52.132;5.442;2023-10-13T08:43:01;10.27;;;3.20;;
71965;SDS011;59836;52.132;5.442;2023-10-13T08:45:31;9.13;;;4.20;;
71965;SDS011;59836;52.132;5.442;2023-10-13T08:48:02;7.05;;;3.45;;
71965;SDS011;59836;52.132;5.442;2023-10-13T08:50:39;12.02;;;3.88;;
71965;SDS011;59836;52.132;5.442;2023-10-13T08:53:19;7.40;;;3.88;;
71965;SDS011;59836;52.132;5.442;2023-10-13T08:56:00;11.47;;;4.87;;
71965;SDS011;59836;52.132;5.442;2023-10-13T08:58:44;10.35;;;4.30;;
71965;SDS011;59836;52.132;5.442;2023-10-13T09:01:25;11.77;;;3.80;;
71965;SDS011;59836;52.132;5.442;2023-10-13T09:04:06;9.57;;;4.07;;
71965;SDS011;59836;52.132;5.442;2023-10-13T09:06:55;8.40;;;3.92;;
71965;SDS011;59836;52.132;5.442;2023-10-13T09:09:32;7.30;;;3.43;;
71965;SDS011;59836;52.132;5.442;2023-10-13T09:15:03;7.82;;;3.70;;
71965;SDS011;59836;52.132;5.442;2023-10-13T09:17:41;8.80;;;3.50;;
71965;SDS011;59836;52.132;5.442;2023-10-13T09:20:14;7.18;;;3.65;;
71965;SDS011;59836;52.132;5.442;2023-10-13T09:23:13;8.67;;;3.80;;
71965;SDS011;59836;52.132;5.442;2023-10-13T09:25:54;14.00;;;3.88;;
71965;SDS011;59836;52.132;5.442;2023-10-13T09:28:35;6.43;;;3.78;;
71965;SDS011;59836;52.132;5.442;2023-10-13T09:31:03;9.70;;;4.28;;
71965;SDS011;59836;52.132;5.442;2023-10-13T09:33:35;13.85;;;3.85;;
71965;SDS011;59836;52.132;5.442;2023-10-13T09:36:02;10.43;;;4.00;;
71965;SDS011;59836;52.132;5.442;2023-10-13T09:38:33;9.55;;;4.00;;
71965;SDS011;59836;52.132;5.442;2023-10-13T09:41:14;10.73;;;4.00;;
71965;SDS011;59836;52.132;5.442;2023-10-13T09:43:53;9.13;;;3.63;;
71965;SDS011;59836;52.132;5.442;2023-10-13T09:46:25;14.13;;;4.50;;
71965;SDS011;59836;52.132;5.442;2023-10-13T09:49:08;11.30;;;3.73;;
71965;SDS011;59836;52.132;5.442;2023-10-13T09:51:48;12.40;;;4.22;;
71965;SDS011;59836;52.132;5.442;2023-10-13T09:54:24;8.27;;;3.95;;
71965;SDS011;59836;52.132;5.442;2023-10-13T09:57:04;8.30;;;3.85;;
71965;SDS011;59836;52.132;5.442;2023-10-13T09:59:45;8.63;;;4.47;;
71965;SDS011;59836;52.132;5.442;2023-10-13T10:02:18;11.13;;;4.07;;
71965;SDS011;59836;52.132;5.442;2023-10-13T10:04:52;9.45;;;4.30;;
71965;SDS011;59836;52.132;5.442;2023-10-13T10:07:25;9.35;;;3.85;;
71965;SDS011;59836;52.132;5.442;2023-10-13T10:09:59;10.15;;;3.85;;
71965;SDS011;59836;52.132;5.442;2023-10-13T10:12:30;9.50;;;4.20;;
71965;SDS011;59836;52.132;5.442;2023-10-13T10:18:01;10.50;;;3.85;;
71965;SDS011;59836;52.132;5.442;2023-10-13T10:20:30;11.45;;;4.43;;
71965;SDS011;59836;52.132;5.442;2023-10-13T10:23:12;11.45;;;4.32;;
71965;SDS011;59836;52.132;5.442;2023-10-13T10:25:49;8.52;;;4.35;;
71965;SDS011;59836;52.132;5.442;2023-10-13T10:28:19;12.17;;;4.67;;
71965;SDS011;59836;52.132;5.442;2023-10-13T10:30:46;8.90;;;4.55;;
71965;SDS011;59836;52.132;5.442;2023-10-13T10:33:13;10.90;;;4.38;;
71965;SDS011;59836;52.132;5.442;2023-10-13T10:35:42;13.90;;;4.20;;
71965;SDS011;59836;52.132;5.442;2023-10-13T10:38:10;10.23;;;4.25;;
71965;SDS011;59836;52.132;5.442;2023-10-13T10:40:57;9.70;;;4.07;;
71965;SDS011;59836;52.132;5.442;2023-10-13T10:46:12;9.70;;;4.55;;
71965;SDS011;59836;52.132;5.442;2023-10-13T10:48:43;7.60;;;4.90;;
71965;SDS011;59836;52.132;5.442;2023-10-13T10:51:11;10.38;;;4.53;;
71965;SDS011;59836;52.132;5.442;2023-10-13T10:53:50;7.13;;;4.10;;
71965;SDS011;59836;52.132;5.442;2023-10-13T10:56:25;12.02;;;4.20;;
71965;SDS011;59836;52.132;5.442;2023-10-13T10:59:05;12.27;;;4.80;;
71965;SDS011;59836;52.132;5.442;2023-10-13T11:01:46;10.10;;;4.72;;
71965;SDS011;59836;52.132;5.442;2023-10-13T11:04:19;9.10;;;5.85;;
71965;SDS011;59836;52.132;5.442;2023-10-13T11:06:50;9.07;;;4.97;;
71965;SDS011;59836;52.132;5.442;2023-10-13T11:09:25;12.52;;;4.63;;
71965;SDS011;59836;52.132;5.442;2023-10-13T11:14:43;12.60;;;5.43;;
71965;SDS011;59836;52.132;5.442;2023-10-13T11:17:20;11.52;;;4.68;;
71965;SDS011;59836;52.132;5.442;2023-10-13T11:19:52;6.77;;;4.17;;
71965;SDS011;59836;52.132;5.442;2023-10-13T11:22:19;14.63;;;4.72;;
71965;SDS011;59836;52.132;5.442;2023-10-13T11:25:00;15.55;;;5.32;;
71965;SDS011;59836;52.132;5.442;2023-10-13T11:27:39;11.30;;;5.00;;
71965;SDS011;59836;52.132;5.442;2023-10-13T11:30:11;11.48;;;4.43;;
71965;SDS011;59836;52.132;5.442;2023-10-13T11:33:00;13.83;;;4.87;;
71965;SDS011;59836;52.132;5.442;2023-10-13T11:35:34;15.57;;;4.90;;
71965;SDS011;59836;52.132;5.442;2023-10-13T11:38:21;13.57;;;5.22;;
71965;SDS011;59836;52.132;5.442;2023-10-13T11:43:35;10.80;;;4.43;;
71965;SDS011;59836;52.132;5.442;2023-10-13T11:48:44;12.30;;;4.22;;
71965;SDS011;59836;52.132;5.442;2023-10-13T11:51:13;13.07;;;4.93;;
71965;SDS011;59836;52.132;5.442;2023-10-13T11:53:46;9.52;;;4.65;;
71965;SDS011;59836;52.132;5.442;2023-10-13T11:56:18;11.73;;;5.13;;
71965;SDS011;59836;52.132;5.442;2023-10-13T11:58:48;14.00;;;4.57;;
71965;SDS011;59836;52.132;5.442;2023-10-13T12:01:15;10.45;;;5.03;;
71965;SDS011;59836;52.132;5.442;2023-10-13T12:03:46;15.63;;;4.88;;
71965;SDS011;59836;52.132;5.442;2023-10-13T12:06:33;12.85;;;5.07;;
71965;SDS011;59836;52.132;5.442;2023-10-13T12:09:05;12.02;;;4.38;;
71965;SDS011;59836;52.132;5.442;2023-10-13T12:11:45;10.23;;;5.07;;
71965;SDS011;59836;52.132;5.442;2023-10-13T12:14:15;11.55;;;4.63;;
71965;SDS011;59836;52.132;5.442;2023-10-13T12:17:00;9.57;;;5.13;;
71965;SDS011;59836;52.132;5.442;2023-10-13T12:19:30;10.48;;;4.82;;
71965;SDS011;59836;52.132;5.442;2023-10-13T12:21:57;12.63;;;5.10;;
71965;SDS011;59836;52.132;5.442;2023-10-13T12:24:30;11.97;;;4.90;;
71965;SDS011;59836;52.132;5.442;2023-10-13T12:27:03;11.98;;;5.38;;
71965;SDS011;59836;52.132;5.442;2023-10-13T12:32:12;11.82;;;4.90;;
71965;SDS011;59836;52.132;5.442;2023-10-13T12:34:40;15.23;;;4.90;;
71965;SDS011;59836;52.132;5.442;2023-10-13T12:37:26;10.67;;;4.63;;
71965;SDS011;59836;52.132;5.442;2023-10-13T12:42:57;11.80;;;4.95;;
71965;SDS011;59836;52.132;5.442;2023-10-13T12:45:43;8.25;;;4.82;;
71965;SDS011;59836;52.132;5.442;2023-10-13T12:48:29;12.63;;;4.65;;
71965;SDS011;59836;52.132;5.442;2023-10-13T12:51:14;10.33;;;4.27;;
71965;SDS011;59836;52.132;5.442;2023-10-13T12:54:07;11.40;;;4.53;;
71965;SDS011;59836;52.132;5.442;2023-10-13T12:56:54;9.82;;;4.88;;
71965;SDS011;59836;52.132;5.442;2023-10-13T12:59:23;9.50;;;4.30;;
71965;SDS011;59836;52.132;5.442;2023-10-13T13:01:53;11.38;;;4.63;;
71965;SDS011;59836;52.132;5.442;2023-10-13T13:04:20;11.20;;;4.57;;
71965;SDS011;59836;52.132;5.442;2023-10-13T13:06:51;11.43;;;5.00;;
71965;SDS011;59836;52.132;5.442;2023-10-13T13:09:20;12.57;;;4.40;;
71965;SDS011;59836;52.132;5.442;2023-10-13T13:11:52;10.55;;;5.05;;
71965;SDS011;59836;52.132;5.442;2023-10-13T13:14:24;11.65;;;5.10;;
71965;SDS011;59836;52.132;5.442;2023-10-13T13:16:56;8.70;;;4.43;;
71965;SDS011;59836;52.132;5.442;2023-10-13T13:19:35;13.77;;;5.22;;
71965;SDS011;59836;52.132;5.442;2023-10-13T13:22:05;11.00;;;4.82;;
71965;SDS011;59836;52.132;5.442;2023-10-13T13:24:42;14.02;;;4.90;;
71965;SDS011;59836;52.132;5.442;2023-10-13T13:27:11;18.40;;;6.35;;
71965;SDS011;59836;52.132;5.442;2023-10-13T13:29:40;9.57;;;4.40;;
71965;SDS011;59836;52.132;5.442;2023-10-13T13:32:13;13.18;;;4.85;;
71965;SDS011;59836;52.132;5.442;2023-10-13T13:34:50;12.73;;;5.07;;
71965;SDS011;59836;52.132;5.442;2023-10-13T13:37:31;12.43;;;5.30;;
71965;SDS011;59836;52.132;5.442;2023-10-13T13:39:58;11.98;;;5.53;;
71965;SDS011;59836;52.132;5.442;2023-10-13T13:42:54;10.13;;;4.83;;
71965;SDS011;59836;52.132;5.442;2023-10-13T13:45:24;13.25;;;5.07;;
71965;SDS011;59836;52.132;5.442;2023-10-13T13:47:54;11.40;;;6.00;;
71965;SDS011;59836;52.132;5.442;2023-10-13T13:50:25;12.65;;;5.30;;
71965;SDS011;59836;52.132;5.442;2023-10-13T13:52:58;10.05;;;5.32;;
71965;SDS011;59836;52.132;5.442;2023-10-13T13:55:26;11.47;;;5.83;;
71965;SDS011;59836;52.132;5.442;2023-10-13T14:01:04;12.68;;;6.18;;
71965;SDS011;59836;52.132;5.442;2023-10-13T14:04:28;14.65;;;5.00;;
71965;SDS011;59836;52.132;5.442;2023-10-13T14:06:58;11.05;;;5.20;;
71965;SDS011;59836;52.132;5.442;2023-10-13T14:09:31;11.13;;;4.80;;
71965;SDS011;59836;52.132;5.442;2023-10-13T14:19:14;10.63;;;5.03;;
71965;SDS011;59836;52.132;5.442;2023-10-13T14:24:39;15.50;;;5.17;;
71965;SDS011;59836;52.132;5.442;2023-10-13T14:27:18;14.65;;;4.97;;
71965;SDS011;59836;52.132;5.442;2023-10-13T14:29:46;13.18;;;4.82;;
71965;SDS011;59836;52.132;5.442;2023-10-13T14:32:13;10.32;;;5.25;;
71965;SDS011;59836;52.132;5.442;2023-10-13T14:34:42;16.70;;;5.20;;
71965;SDS011;59836;52.132;5.442;2023-10-13T14:37:10;10.83;;;4.57;;
71965;SDS011;59836;52.132;5.442;2023-10-13T14:39:39;10.90;;;4.32;;
71965;SDS011;59836;52.132;5.442;2023-10-13T14:42:07;12.50;;;5.57;;
71965;SDS011;59836;52.132;5.442;2023-10-13T14:44:34;14.82;;;5.20;;
71965;SDS011;59836;52.132;5.442;2023-10-13T14:47:05;13.68;;;5.05;;
71965;SDS011;59836;52.132;5.442;2023-10-13T14:49:32;9.27;;;4.40;;
71965;SDS011;59836;52.132;5.442;2023-10-13T14:51:58;10.05;;;4.55;;
71965;SDS011;59836;52.132;5.442;2023-10-13T14:54:26;14.23;;;5.25;;
71965;SDS011;59836;52.132;5.442;2023-10-13T14:57:02;9.88;;;4.40;;
71965;SDS011;59836;52.132;5.442;2023-10-13T14:59:29;9.68;;;4.65;;
71965;SDS011;59836;52.132;5.442;2023-10-13T15:02:04;9.47;;;4.63;;
71965;SDS011;59836;52.132;5.442;2023-10-13T15:49:55;9.20;;;4.97;;
71965;SDS011;59836;52.132;5.442;2023-10-13T15:55:45;8.85;;;4.57;;
71965;SDS011;59836;52.132;5.442;2023-10-13T15:58:13;12.88;;;5.50;;
71965;SDS011;59836;52.132;5.442;2023-10-13T16:04:33;12.63;;;5.15;;
71965;SDS011;59836;52.132;5.442;2023-10-13T16:07:00;11.30;;;5.00;;
71965;SDS011;59836;52.132;5.442;2023-10-13T16:09:27;9.52;;;4.80;;
71965;SDS011;59836;52.132;5.442;2023-10-13T16:11:54;9.52;;;4.90;;
71965;SDS011;59836;52.132;5.442;2023-10-13T16:14:21;11.45;;;5.00;;
71965;SDS011;59836;52.132;5.442;2023-10-13T16:16:49;13.55;;;4.65;;
71965;SDS011;59836;52.132;5.442;2023-10-13T16:19:20;9.90;;;4.47;;
71965;SDS011;59836;52.132;5.442;2023-10-13T16:21:50;10.40;;;4.80;;
71965;SDS011;59836;52.132;5.442;2023-10-13T16:24:18;12.02;;;4.78;;
71965;SDS011;59836;52.132;5.442;2023-10-13T16:26:46;10.52;;;4.88;;
71965;SDS011;59836;52.132;5.442;2023-10-13T16:29:16;10.63;;;5.03;;
71965;SDS011;59836;52.132;5.442;2023-10-13T16:31:43;10.67;;;4.40;;
71965;SDS011;59836;52.132;5.442;2023-10-13T16:34:12;9.95;;;4.90;;
71965;SDS011;59836;52.132;5.442;2023-10-13T16:36:42;13.30;;;5.05;;
71965;SDS011;59836;52.132;5.442;2023-10-13T16:39:13;12.48;;;4.57;;
71965;SDS011;59836;52.132;5.442;2023-10-13T16:41:44;12.10;;;4.35;;
71965;SDS011;59836;52.132;5.442;2023-10-13T16:44:14;10.50;;;4.30;;
71965;SDS011;59836;52.132;5.442;2023-10-13T16:46:42;9.50;;;4.40;;
71965;SDS011;59836;52.132;5.442;2023-10-13T16:49:09;11.98;;;4.80;;
71965;SDS011;59836;52.132;5.442;2023-10-13T16:51:37;9.10;;;4.13;;
71965;SDS011;59836;52.132;5.442;2023-10-13T16:54:05;10.27;;;4.43;;
71965;SDS011;59836;52.132;5.442;2023-10-13T16:56:34;8.40;;;4.00;;
71965;SDS011;59836;52.132;5.442;2023-10-13T16:59:05;15.68;;;5.15;;
71965;SDS011;59836;52.132;5.442;2023-10-13T17:01:33;8.45;;;4.55;;
71965;SDS011;59836;52.132;5.442;2023-10-13T17:04:00;12.07;;;4.78;;
71965;SDS011;59836;52.132;5.442;2023-10-13T17:06:33;11.23;;;5.18;;
71965;SDS011;59836;52.132;5.442;2023-10-13T17:09:00;13.90;;;4.87;;
71965;SDS011;59836;52.132;5.442;2023-10-13T17:11:31;13.65;;;5.78;;
71965;SDS011;59836;52.132;5.442;2023-10-13T17:16:35;14.40;;;6.95;;
71965;SDS011;59836;52.132;5.442;2023-10-13T17:19:03;15.25;;;6.18;;
71965;SDS011;59836;52.132;5.442;2023-10-13T17:21:31;13.60;;;5.57;;
71965;SDS011;59836;52.132;5.442;2023-10-13T17:23:58;12.85;;;5.45;;
71965;SDS011;59836;52.132;5.442;2023-10-13T17:26:28;9.73;;;5.13;;
71965;SDS011;59836;52.132;5.442;2023-10-13T17:28:59;12.30;;;5.18;;
71965;SDS011;59836;52.132;5.442;2023-10-13T17:31:25;14.75;;;5.25;;
71965;SDS011;59836;52.132;5.442;2023-10-13T17:33:58;13.47;;;5.20;;
71965;SDS011;59836;52.132;5.442;2023-10-13T17:36:31;10.75;;;4.55;;
71965;SDS011;59836;52.132;5.442;2023-10-13T17:38:58;13.05;;;5.55;;
71965;SDS011;59836;52.132;5.442;2023-10-13T17:41:25;16.45;;;6.03;;
71965;SDS011;59836;52.132;5.442;2023-10-13T17:43:52;11.57;;;4.85;;
71965;SDS011;59836;52.132;5.442;2023-10-13T17:46:19;15.73;;;5.17;;
71965;SDS011;59836;52.132;5.442;2023-10-13T17:48:48;9.80;;;5.22;;
71965;SDS011;59836;52.132;5.442;2023-10-13T17:51:15;12.18;;;5.78;;
71965;SDS011;59836;52.132;5.442;2023-10-13T17:53:41;12.75;;;5.78;;
71965;SDS011;59836;52.132;5.442;2023-10-13T17:56:09;11.20;;;5.28;;
71965;SDS011;59836;52.132;5.442;2023-10-13T17:58:45;10.50;;;5.43;;